createdAt,value
2022-11-28T00:01:41.719Z,19.58
2022-11-28T00:04:10.787Z,21.65
2022-11-28T00:06:42.061Z,21.52
2022-11-28T00:09:10.358Z,19.58
2022-11-28T00:11:42.994Z,18.08
2022-11-28T00:14:11.324Z,12.55
2022-11-28T00:16:39.648Z,16.08
2022-11-28T00:19:08.768Z,16.48
2022-11-28T00:21:37.044Z,12.93
2022-11-28T00:24:05.504Z,14.60
2022-11-28T00:26:36.481Z,16.60
2022-11-28T00:29:04.936Z,17.00
2022-11-28T00:31:43.820Z,17.77
2022-11-28T00:34:13.976Z,27.83
2022-11-28T00:36:47.018Z,27.08
2022-11-28T00:39:17.303Z,35.47
2022-11-28T00:41:45.930Z,34.42
2022-11-28T00:44:14.362Z,47.63
2022-11-28T00:46:43.161Z,44.65
2022-11-28T00:49:11.397Z,44.35
2022-11-28T00:51:42.242Z,46.28
2022-11-28T00:54:12.977Z,41.30
2022-11-28T00:56:41.688Z,29.13
2022-11-28T00:59:10.067Z,28.50
2022-11-28T01:01:44.800Z,29.65
2022-11-28T01:04:15.969Z,24.67
2022-11-28T01:06:47.495Z,18.25
2022-11-28T01:09:23.317Z,18.70
2022-11-28T01:11:53.508Z,22.23
2022-11-28T01:14:25.627Z,27.02
2022-11-28T01:16:54.022Z,26.73
2022-11-28T01:19:24.263Z,28.77
2022-11-28T01:21:52.620Z,27.50
2022-11-28T01:24:20.816Z,24.65
2022-11-28T01:26:49.057Z,27.98
2022-11-28T01:29:17.257Z,28.55
2022-11-28T01:31:45.609Z,25.50
2022-11-28T01:34:13.870Z,37.33
2022-11-28T01:36:42.168Z,32.67
2022-11-28T01:39:11.019Z,29.38
2022-11-28T01:41:42.842Z,27.20
2022-11-28T01:44:16.978Z,27.17
2022-11-28T01:46:45.201Z,24.35
2022-11-28T01:49:34.854Z,22.65
2022-11-28T01:52:05.594Z,24.67
2022-11-28T01:54:35.558Z,21.83
2022-11-28T01:57:11.359Z,21.17
2022-11-28T01:59:56.681Z,21.60
2022-11-28T02:02:35.345Z,25.00
2022-11-28T02:05:04.355Z,24.48
2022-11-28T02:07:34.435Z,22.13
2022-11-28T02:10:06.402Z,23.08
2022-11-28T02:12:59.360Z,20.75
2022-11-28T02:15:41.783Z,25.17
2022-11-28T02:18:36.138Z,23.45
2022-11-28T02:21:13.116Z,26.08
2022-11-28T02:23:41.250Z,22.17
2022-11-28T02:26:30.643Z,23.77
2022-11-28T02:29:17.513Z,21.98
2022-11-28T02:32:09.979Z,21.67
2022-11-28T02:34:47.363Z,21.83
2022-11-28T02:37:59.996Z,20.30
2022-11-28T02:41:05.369Z,21.90
2022-11-28T02:43:42.523Z,22.88
2022-11-28T02:46:23.043Z,22.83
2022-11-28T02:49:04.640Z,24.30
2022-11-28T02:51:47.555Z,22.80
2022-11-28T02:54:18.372Z,24.42
2022-11-28T02:56:50.949Z,25.58
2022-11-28T02:59:37.417Z,27.95
2022-11-28T03:02:28.992Z,24.23
2022-11-28T03:05:27.452Z,22.10
2022-11-28T03:08:16.609Z,23.77
2022-11-28T03:10:59.083Z,25.23
2022-11-28T03:14:01.348Z,19.95
2022-11-28T03:17:03.652Z,22.15
2022-11-28T03:19:47.521Z,23.42
2022-11-28T03:22:30.758Z,23.75
2022-11-28T03:25:03.574Z,23.23
2022-11-28T03:27:39.585Z,20.50
2022-11-28T03:30:16.986Z,20.48
2022-11-28T03:32:47.865Z,18.90
2022-11-28T03:35:22.522Z,19.95
2022-11-28T03:38:07.017Z,20.95
2022-11-28T03:40:42.193Z,21.27
2022-11-28T03:43:15.984Z,23.40
2022-11-28T03:45:55.970Z,18.20
2022-11-28T03:48:31.513Z,18.38
2022-11-28T03:51:06.393Z,15.73
2022-11-28T03:53:55.499Z,21.38
2022-11-28T03:56:30.421Z,16.08
2022-11-28T03:59:09.469Z,19.40
2022-11-28T04:01:43.778Z,17.55
2022-11-28T04:04:20.873Z,14.95
2022-11-28T04:07:12.016Z,14.63
2022-11-28T04:09:54.849Z,15.25
2022-11-28T04:12:44.685Z,16.23
2022-11-28T04:15:25.088Z,14.07
2022-11-28T04:18:17.731Z,16.10
2022-11-28T04:21:12.981Z,13.68
2022-11-28T04:23:44.242Z,16.17
2022-11-28T04:26:24.058Z,16.27
2022-11-28T04:28:55.753Z,14.23
2022-11-28T04:31:26.085Z,16.10
2022-11-28T04:34:01.046Z,16.30
2022-11-28T04:36:30.791Z,19.67
2022-11-28T04:39:00.410Z,16.50
2022-11-28T04:41:41.574Z,15.57
2022-11-28T04:44:13.852Z,19.75
2022-11-28T04:46:48.361Z,17.77
2022-11-28T04:49:16.826Z,15.45
2022-11-28T04:52:12.451Z,15.93
2022-11-28T04:55:01.506Z,17.38
2022-11-28T04:57:42.378Z,15.52
2022-11-28T05:00:20.406Z,15.40
2022-11-28T05:02:52.964Z,16.35
2022-11-28T05:05:24.337Z,13.35
2022-11-28T05:07:53.254Z,11.18
2022-11-28T05:10:21.850Z,13.75
2022-11-28T05:12:50.158Z,18.10
2022-11-28T05:15:19.232Z,18.70
2022-11-28T05:17:50.362Z,18.30
2022-11-28T05:20:18.625Z,22.58
2022-11-28T05:22:46.781Z,16.30
2022-11-28T05:25:15.164Z,19.05
2022-11-28T05:27:43.321Z,14.68
2022-11-28T05:30:12.669Z,20.13
2022-11-28T05:32:40.876Z,14.57
2022-11-28T05:35:09.385Z,16.58
2022-11-28T05:37:38.283Z,13.85
2022-11-28T05:40:07.378Z,16.92
2022-11-28T05:42:36.513Z,20.00
2022-11-28T05:45:05.214Z,18.08
2022-11-28T05:47:34.243Z,14.70
2022-11-28T05:50:02.555Z,15.85
2022-11-28T05:52:34.677Z,14.15
2022-11-28T05:55:02.927Z,19.30
2022-11-28T05:57:34.552Z,17.23
2022-11-28T06:00:03.340Z,17.73
2022-11-28T06:02:39.966Z,15.93
2022-11-28T06:05:27.670Z,18.13
2022-11-28T06:07:57.654Z,16.75
2022-11-28T06:10:25.825Z,19.10
2022-11-28T06:12:54.066Z,21.60
2022-11-28T06:15:22.241Z,20.38
2022-11-28T06:17:50.467Z,18.65
2022-11-28T06:20:18.690Z,20.80
2022-11-28T06:22:47.508Z,14.50
2022-11-28T06:25:15.804Z,20.48
2022-11-28T06:27:44.089Z,14.90
2022-11-28T06:30:12.569Z,14.43
2022-11-28T06:32:40.788Z,18.90
2022-11-28T06:35:09.307Z,19.55
2022-11-28T06:37:40.379Z,16.05
2022-11-28T06:40:10.517Z,18.50
2022-11-28T06:42:38.941Z,25.67
2022-11-28T06:45:09.686Z,17.77
2022-11-28T06:47:37.963Z,19.50
2022-11-28T06:50:08.880Z,20.25
2022-11-28T06:52:37.302Z,16.85
2022-11-28T06:55:05.823Z,14.13
2022-11-28T06:57:34.395Z,18.70
2022-11-28T07:00:02.862Z,16.85
2022-11-28T07:02:31.121Z,16.75
2022-11-28T07:04:59.346Z,19.48
2022-11-28T07:07:27.577Z,21.60
2022-11-28T07:09:55.832Z,19.00
2022-11-28T07:12:24.106Z,19.02
2022-11-28T07:14:52.309Z,17.52
2022-11-28T07:17:20.502Z,18.17
2022-11-28T07:19:54.706Z,21.60
2022-11-28T07:22:23.457Z,20.88
2022-11-28T07:24:52.254Z,21.13
2022-11-28T07:27:20.507Z,18.38
2022-11-28T07:29:48.678Z,21.02
2022-11-28T07:32:17.144Z,18.08
2022-11-28T07:34:49.884Z,24.17
2022-11-28T07:37:18.563Z,19.83
2022-11-28T07:39:47.597Z,18.85
2022-11-28T07:42:15.860Z,20.60
2022-11-28T07:44:51.769Z,17.70
2022-11-28T07:47:19.948Z,16.60
2022-11-28T07:49:48.154Z,23.55
2022-11-28T07:52:16.548Z,20.25
2022-11-28T07:54:44.729Z,19.95
2022-11-28T07:57:13.527Z,22.67
2022-11-28T07:59:42.171Z,22.10
2022-11-28T08:02:13.662Z,22.95
2022-11-28T08:07:30.188Z,46.15
2022-11-28T08:09:58.421Z,33.95
2022-11-28T08:12:26.724Z,19.48
2022-11-28T08:14:54.956Z,19.50
2022-11-28T08:17:23.935Z,25.63
2022-11-28T08:19:54.025Z,21.05
2022-11-28T08:22:22.784Z,25.50
2022-11-28T08:24:50.989Z,25.90
2022-11-28T08:27:19.156Z,37.72
2022-11-28T08:29:51.865Z,40.33
2022-11-28T08:32:21.493Z,38.42
2022-11-28T08:34:49.662Z,66.45
2022-11-28T08:37:17.871Z,58.97
2022-11-28T08:39:46.133Z,56.83
2022-11-28T08:42:14.340Z,53.05
2022-11-28T08:44:42.606Z,30.35
2022-11-28T08:47:10.768Z,23.77
2022-11-28T08:49:39.500Z,21.52
2022-11-28T08:52:08.054Z,18.17
2022-11-28T08:54:36.420Z,18.13
2022-11-28T08:57:07.171Z,23.20
2022-11-28T08:59:35.426Z,19.20
2022-11-28T09:02:03.661Z,21.48
2022-11-28T09:04:31.848Z,23.05
2022-11-28T09:07:00.135Z,18.15
2022-11-28T09:09:32.772Z,18.98
2022-11-28T09:12:01.276Z,17.77
2022-11-28T09:14:29.501Z,26.92
2022-11-28T09:16:57.718Z,26.48
2022-11-28T09:19:25.946Z,22.58
2022-11-28T09:21:57.720Z,26.65
2022-11-28T09:24:26.420Z,25.13
2022-11-28T09:26:56.213Z,29.70
2022-11-28T09:29:24.493Z,22.80
2022-11-28T09:31:52.722Z,23.35
2022-11-28T09:34:21.436Z,22.67
2022-11-28T09:36:50.151Z,23.25
2022-11-28T09:39:18.361Z,20.23
2022-11-28T09:41:58.444Z,22.77
2022-11-28T09:44:48.474Z,21.23
2022-11-28T09:47:28.071Z,26.05
2022-11-28T09:50:06.088Z,24.90
2022-11-28T09:53:08.151Z,25.27
2022-11-28T09:55:40.137Z,23.73
2022-11-28T09:58:39.015Z,24.55
2022-11-28T10:01:20.937Z,24.40
2022-11-28T10:04:19.464Z,24.60
2022-11-28T10:07:06.401Z,23.48
2022-11-28T10:09:44.081Z,23.02
2022-11-28T10:12:25.065Z,22.95
2022-11-28T10:15:27.401Z,26.88
2022-11-28T10:18:09.336Z,22.45
2022-11-28T10:20:45.126Z,24.85
2022-11-28T10:23:30.475Z,25.67
2022-11-28T10:26:16.788Z,24.83
2022-11-28T10:28:48.627Z,24.73
2022-11-28T10:31:28.467Z,23.92
2022-11-28T10:34:17.169Z,20.92
2022-11-28T10:37:00.838Z,21.90
2022-11-28T10:42:15.286Z,19.00
2022-11-28T10:45:14.896Z,17.30
2022-11-28T10:47:57.127Z,21.00
2022-11-28T10:50:52.875Z,18.15
2022-11-28T10:53:27.143Z,17.70
2022-11-28T10:56:12.012Z,21.40
2022-11-28T10:58:42.995Z,23.02
2022-11-28T11:01:12.601Z,21.10
2022-11-28T11:03:41.710Z,28.73
2022-11-28T11:06:09.890Z,24.98
2022-11-28T11:08:40.090Z,23.98
2022-11-28T11:11:29.674Z,24.25
2022-11-28T11:14:02.948Z,21.80
2022-11-28T11:19:35.997Z,25.20
2022-11-28T11:22:23.865Z,25.80
2022-11-28T11:25:14.661Z,19.45
2022-11-28T11:28:01.855Z,19.52
2022-11-28T11:30:32.230Z,17.67
2022-11-28T11:33:03.871Z,19.17
2022-11-28T11:35:36.116Z,23.67
2022-11-28T11:38:37.516Z,22.83
2022-11-28T11:41:31.924Z,22.60
2022-11-28T11:44:15.568Z,21.23
2022-11-28T11:47:05.550Z,20.45
2022-11-28T11:49:39.803Z,22.13
2022-11-28T11:52:25.180Z,28.52
2022-11-28T11:54:58.845Z,15.65
2022-11-28T11:57:43.494Z,24.38
2022-11-28T12:00:22.537Z,18.13
2022-11-28T12:02:58.639Z,20.52
2022-11-28T12:08:46.066Z,17.88
2022-11-28T12:11:31.517Z,26.88
2022-11-28T12:14:24.388Z,21.08
2022-11-28T12:17:48.801Z,19.17
2022-11-28T12:20:45.464Z,19.20
2022-11-28T12:23:39.821Z,24.52
2022-11-28T12:26:32.273Z,24.52
2022-11-28T12:29:06.544Z,21.13
2022-11-28T12:31:59.941Z,18.70
2022-11-28T12:34:52.799Z,20.90
2022-11-28T12:38:09.376Z,22.75
2022-11-28T12:40:56.824Z,28.30
2022-11-28T12:43:36.656Z,19.38
2022-11-28T12:46:43.840Z,19.13
2022-11-28T12:49:18.458Z,16.17
2022-11-28T12:52:23.818Z,15.82
2022-11-28T12:55:13.819Z,18.00
2022-11-28T12:57:50.899Z,17.52
2022-11-28T13:00:22.520Z,21.08
2022-11-28T13:03:05.964Z,23.23
2022-11-28T13:08:57.915Z,21.63
2022-11-28T13:11:32.282Z,20.80
2022-11-28T13:14:20.088Z,21.80
2022-11-28T13:16:54.474Z,24.38
2022-11-28T13:19:40.777Z,19.65
2022-11-28T13:22:28.607Z,20.33
2022-11-28T13:24:56.857Z,18.38
2022-11-28T13:28:05.138Z,19.00
2022-11-28T13:30:54.775Z,23.48
2022-11-28T13:33:44.828Z,25.17
2022-11-28T13:39:29.868Z,22.38
2022-11-28T13:42:52.479Z,26.23
2022-11-28T13:45:43.582Z,22.05
2022-11-28T13:49:15.453Z,28.10
2022-11-28T13:51:44.178Z,27.85
2022-11-28T13:54:18.996Z,30.70
2022-11-28T13:57:05.936Z,25.95
2022-11-28T13:59:34.717Z,33.28
2022-11-28T14:02:15.016Z,28.73
2022-11-28T14:04:44.877Z,24.20
2022-11-28T14:07:30.962Z,26.92
2022-11-28T14:10:18.486Z,27.23
2022-11-28T14:13:23.056Z,23.95
2022-11-28T14:16:07.832Z,27.25
2022-11-28T14:19:09.767Z,29.13
2022-11-28T14:21:58.409Z,32.97
2022-11-28T14:24:34.621Z,28.27
2022-11-28T14:27:07.136Z,26.42
2022-11-28T14:29:41.284Z,26.27
2022-11-28T14:32:42.432Z,28.92
2022-11-28T14:35:50.142Z,26.50
2022-11-28T14:41:16.912Z,22.08
2022-11-28T14:43:49.729Z,24.67
2022-11-28T14:46:22.083Z,30.10
2022-11-28T14:48:59.566Z,28.23
2022-11-28T14:51:53.590Z,33.92
2022-11-28T14:54:42.004Z,27.65
2022-11-28T14:57:24.202Z,28.88
2022-11-28T14:59:54.750Z,29.52
2022-11-28T15:02:34.800Z,31.90
2022-11-28T15:05:35.038Z,29.80
2022-11-28T15:08:31.338Z,27.20
2022-11-28T15:11:54.901Z,30.77
2022-11-28T15:14:29.064Z,33.08
2022-11-28T15:17:01.709Z,36.38
2022-11-28T15:19:49.859Z,33.08
2022-11-28T15:22:42.890Z,37.83
2022-11-28T15:25:27.610Z,34.92
2022-11-28T15:27:56.899Z,33.28
2022-11-28T15:30:27.022Z,35.10
2022-11-28T15:33:01.790Z,37.40
2022-11-28T15:35:30.573Z,40.65
2022-11-28T15:38:01.663Z,29.48
2022-11-28T15:40:33.666Z,32.85
2022-11-28T15:43:06.618Z,34.00
2022-11-28T15:45:37.906Z,39.47
2022-11-28T15:48:25.124Z,30.90
2022-11-28T15:50:53.899Z,39.28
2022-11-28T15:53:22.816Z,35.85
2022-11-28T15:56:14.821Z,40.28
2022-11-28T15:58:44.537Z,35.60
2022-11-28T16:01:24.762Z,36.70
2022-11-28T16:04:17.230Z,38.83
2022-11-28T16:06:52.521Z,44.70
2022-11-28T16:09:32.305Z,43.03
2022-11-28T16:12:01.853Z,41.97
2022-11-28T16:14:35.925Z,60.03
2022-11-28T16:17:12.791Z,59.88
2022-11-28T16:19:43.172Z,67.22
2022-11-28T16:22:19.936Z,63.30
2022-11-28T16:24:55.422Z,67.15
2022-11-28T16:27:29.436Z,66.38
2022-11-28T16:29:57.805Z,71.55
2022-11-28T16:32:40.286Z,61.47
2022-11-28T16:35:12.724Z,76.45
2022-11-28T16:37:40.981Z,79.15
2022-11-28T16:40:23.899Z,74.40
2022-11-28T16:42:56.258Z,76.93
2022-11-28T16:45:33.181Z,73.70
2022-11-28T16:48:19.239Z,60.17
2022-11-28T16:51:02.890Z,57.60
2022-11-28T16:53:44.686Z,51.58
2022-11-28T16:56:31.077Z,47.38
2022-11-28T16:59:07.994Z,40.40
2022-11-28T17:01:37.059Z,37.42
2022-11-28T17:04:05.635Z,35.08
2022-11-28T17:06:39.384Z,37.97
2022-11-28T17:09:11.956Z,35.28
2022-11-28T17:12:05.188Z,34.47
2022-11-28T17:14:35.367Z,37.75
2022-11-28T17:17:13.731Z,41.28
2022-11-28T17:19:42.449Z,31.23
2022-11-28T17:22:18.189Z,34.63
2022-11-28T17:24:49.616Z,32.42
2022-11-28T17:27:17.947Z,32.58
2022-11-28T17:29:48.967Z,32.72
2022-11-28T17:32:25.005Z,31.13
2022-11-28T17:34:53.825Z,27.60
2022-11-28T17:37:24.959Z,30.55
2022-11-28T17:40:13.200Z,37.03
2022-11-28T17:42:41.337Z,37.90
2022-11-28T17:45:15.282Z,35.65
2022-11-28T17:47:44.830Z,31.30
2022-11-28T17:50:13.447Z,31.15
2022-11-28T17:52:42.190Z,28.58
2022-11-28T17:55:10.661Z,27.33
2022-11-28T17:57:39.722Z,31.20
2022-11-28T18:00:12.442Z,30.88
2022-11-28T18:02:44.781Z,30.20
2022-11-28T18:05:13.160Z,32.13
2022-11-28T18:07:41.798Z,33.92
2022-11-28T18:10:13.124Z,32.47
2022-11-28T18:12:41.531Z,33.70
2022-11-28T18:15:13.090Z,34.85
2022-11-28T18:17:41.285Z,28.90
2022-11-28T18:20:11.257Z,31.10
2022-11-28T18:22:39.570Z,29.50
2022-11-28T18:25:12.293Z,31.55
2022-11-28T18:27:40.611Z,32.95
2022-11-28T18:30:09.818Z,34.22
2022-11-28T18:32:38.468Z,32.38
2022-11-28T18:35:08.407Z,31.55
2022-11-28T18:37:42.265Z,29.92
2022-11-28T18:40:10.669Z,27.08
2022-11-28T18:42:39.019Z,34.53
2022-11-28T18:45:08.458Z,28.02
2022-11-28T18:47:36.853Z,30.40
2022-11-28T18:50:07.644Z,34.22
2022-11-28T18:52:36.358Z,35.97
2022-11-28T18:55:05.356Z,35.67
2022-11-28T18:57:34.691Z,34.58
2022-11-28T19:00:04.871Z,36.72
2022-11-28T19:02:34.168Z,34.38
2022-11-28T19:05:02.382Z,33.38
2022-11-28T19:07:30.625Z,36.97
2022-11-28T19:09:59.196Z,31.30
2022-11-28T19:12:27.847Z,36.00
2022-11-28T19:15:01.571Z,42.30
2022-11-28T19:17:30.462Z,30.58
2022-11-28T19:19:58.618Z,32.45
2022-11-28T19:22:26.852Z,31.75
2022-11-28T19:24:54.961Z,35.05
2022-11-28T19:27:23.878Z,34.97
2022-11-28T19:29:52.007Z,30.88
2022-11-28T19:32:20.269Z,32.35
2022-11-28T19:34:52.318Z,31.02
2022-11-28T19:37:20.701Z,30.88
2022-11-28T19:39:48.865Z,26.98
2022-11-28T19:42:18.099Z,29.80
2022-11-28T19:44:46.206Z,31.05
2022-11-28T19:47:14.635Z,39.03
2022-11-28T19:49:43.109Z,30.10
2022-11-28T19:52:11.699Z,33.25
2022-11-28T19:54:40.724Z,32.33
2022-11-28T19:57:11.331Z,28.95
2022-11-28T19:59:39.656Z,30.45
2022-11-28T20:02:09.029Z,34.42
2022-11-28T20:04:40.389Z,34.88
2022-11-28T20:07:11.370Z,30.83
2022-11-28T20:09:39.584Z,33.30
2022-11-28T20:12:07.792Z,33.78
2022-11-28T20:14:36.601Z,35.90
2022-11-28T20:17:05.517Z,42.95
2022-11-28T20:19:34.985Z,39.30
2022-11-28T20:22:03.342Z,42.33
2022-11-28T20:24:31.881Z,42.42
2022-11-28T20:27:00.017Z,36.05
2022-11-28T20:29:29.642Z,41.72
2022-11-28T20:31:57.866Z,38.92
2022-11-28T20:34:27.889Z,42.72
2022-11-28T20:36:56.315Z,43.13
2022-11-28T20:39:27.273Z,45.45
2022-11-28T20:41:55.389Z,45.85
2022-11-28T20:44:23.773Z,39.47
2022-11-28T20:46:51.970Z,44.10
2022-11-28T20:49:20.374Z,46.50
2022-11-28T20:51:53.167Z,49.10
2022-11-28T20:54:21.641Z,49.88
2022-11-28T20:59:38.002Z,41.95
2022-11-28T21:02:06.334Z,45.42
2022-11-28T21:04:34.528Z,39.30
2022-11-28T21:07:02.810Z,39.25
2022-11-28T21:09:30.930Z,43.55
2022-11-28T21:11:59.586Z,43.25
2022-11-28T21:14:29.336Z,44.83
2022-11-28T21:16:58.904Z,39.90
2022-11-28T21:19:27.471Z,36.65
2022-11-28T21:21:55.756Z,39.38
2022-11-28T21:24:23.990Z,36.90
2022-11-28T21:26:55.086Z,39.53
2022-11-28T21:29:24.633Z,43.10
2022-11-28T21:31:53.703Z,39.53
2022-11-28T21:34:22.724Z,38.55
2022-11-28T21:36:51.223Z,41.63
2022-11-28T21:39:21.981Z,37.97
2022-11-28T21:41:51.212Z,39.60
2022-11-28T21:44:20.067Z,44.58
2022-11-28T21:46:48.385Z,42.20
2022-11-28T21:49:17.596Z,46.05
2022-11-28T21:51:45.935Z,45.47
2022-11-28T21:54:14.522Z,44.25
2022-11-28T21:56:46.428Z,42.15
2022-11-28T21:59:14.709Z,42.00
2022-11-28T22:01:43.278Z,45.03
2022-11-28T22:04:12.103Z,43.55
2022-11-28T22:06:40.966Z,41.20
2022-11-28T22:09:10.021Z,44.08
2022-11-28T22:11:40.497Z,41.53
2022-11-28T22:14:08.828Z,41.33
2022-11-28T22:16:38.203Z,50.35
2022-11-28T22:19:06.801Z,45.20
2022-11-28T22:21:54.089Z,46.67
2022-11-28T22:24:24.339Z,57.35
2022-11-28T22:26:53.222Z,60.83
2022-11-28T22:29:21.664Z,86.82
2022-11-28T22:31:50.517Z,70.90
2022-11-28T22:34:22.321Z,58.72
2022-11-28T22:36:50.747Z,50.80
2022-11-28T22:39:21.762Z,48.25
2022-11-28T22:41:50.358Z,42.22
2022-11-28T22:44:18.793Z,44.70
2022-11-28T22:46:47.684Z,39.00
2022-11-28T22:49:16.020Z,39.60
2022-11-28T22:51:44.596Z,43.05
2022-11-28T22:54:14.282Z,41.00
2022-11-28T22:56:42.688Z,36.85
2022-11-28T22:59:16.657Z,43.42
2022-11-28T23:01:45.257Z,45.20
2022-11-28T23:04:13.864Z,34.50
2022-11-28T23:06:43.482Z,37.97
2022-11-28T23:09:13.997Z,37.65
2022-11-28T23:11:42.367Z,36.30
2022-11-28T23:14:13.883Z,33.10
2022-11-28T23:16:43.840Z,38.72
2022-11-28T23:19:17.805Z,36.75
2022-11-28T23:21:48.975Z,38.20
2022-11-28T23:24:20.799Z,38.55
2022-11-28T23:26:51.460Z,33.80
2022-11-28T23:29:20.066Z,36.03
2022-11-28T23:31:52.739Z,32.17
2022-11-28T23:34:21.118Z,42.10
2022-11-28T23:36:49.299Z,49.20
2022-11-28T23:39:20.835Z,39.05
2022-11-28T23:41:50.213Z,41.05
2022-11-28T23:44:19.620Z,46.65
2022-11-28T23:46:48.388Z,48.85
2022-11-28T23:49:16.774Z,46.28
2022-11-28T23:51:44.930Z,49.60
2022-11-28T23:54:13.374Z,48.33
2022-11-28T23:56:42.944Z,44.30
2022-11-28T23:59:12.542Z,49.78
